Time,TemperatureF,DewpointF,PressureIn,WindDirection,WindDirectionDegrees,WindSpeedMPH,WindSpeedGustMPH,Humidity,HourlyPrecipIn,Conditions,Clouds,dailyrainin,SoftwareType,DateUTC
2013-03-02 00:03:00,55.8,43.3,30.30,North,-999,-999.0,5.0,63,0.00,,,0.00,meteohub,2013-03-02 08:03:00,
2013-03-02 00:08:00,55.8,43.3,30.30,NE,42,2.0,5.0,63,0.00,,,0.00,meteohub,2013-03-02 08:08:00,
2013-03-02 00:13:00,55.8,43.3,30.30,NE,41,3.0,5.0,63,0.00,,,0.00,meteohub,2013-03-02 08:13:00,
2013-03-02 00:18:00,55.8,43.3,30.30,NE,42,3.0,6.0,63,0.00,,,0.00,meteohub,2013-03-02 08:18:00,
2013-03-02 00:23:00,55.9,43.2,30.30,NE,44,1.0,6.0,62,0.00,,,0.00,meteohub,2013-03-02 08:23:00,
2013-03-02 00:28:00,56.1,43.3,30.30,NE,46,0.0,6.0,62,0.00,,,0.00,meteohub,2013-03-02 08:28:00,
2013-03-02 00:33:00,56.3,43.0,30.30,NE,46,0.0,6.0,61,0.00,,,0.00,meteohub,2013-03-02 08:33:00,
2013-03-02 00:38:00,56.5,42.8,30.30,NE,49,0.0,6.0,60,0.00,,,0.00,meteohub,2013-03-02 08:38:00,
2013-03-02 00:44:00,56.3,43.0,30.30,NE,49,1.0,6.0,61,0.00,,,0.00,meteohub,2013-03-02 08:44:00,
2013-03-02 00:49:00,56.3,42.6,30.30,NE,50,0.0,5.0,60,0.00,,,0.00,meteohub,2013-03-02 08:49:00,
2013-03-02 00:54:00,56.5,42.8,30.30,NE,48,0.0,5.0,60,0.00,,,0.00,meteohub,2013-03-02 08:54:00,
2013-03-02 00:59:00,56.7,43.0,30.29,NE,37,0.0,3.0,60,0.00,,,0.00,meteohub,2013-03-02 08:59:00,
2013-03-02 01:04:00,56.8,42.6,30.29,NE,38,2.0,4.0,59,0.00,,,0.00,meteohub,2013-03-02 09:04:00,
2013-03-02 01:09:00,56.8,42.6,30.29,NE,41,0.0,4.0,59,0.00,,,0.00,meteohub,2013-03-02 09:09:00,
2013-03-02 01:14:00,56.7,42.4,30.29,NE,41,0.0,5.0,59,0.00,,,0.00,meteohub,2013-03-02 09:14:00,
2013-03-02 01:19:00,56.1,42.4,30.29,NE,41,0.0,5.0,60,0.00,,,0.00,meteohub,2013-03-02 09:19:00,
2013-03-02 01:24:00,55.9,42.3,30.29,NE,41,0.0,4.0,60,0.00,,,0.00,meteohub,2013-03-02 09:24:00,
2013-03-02 01:29:00,55.8,42.4,30.29,NE,41,0.0,3.0,61,0.00,,,0.00,meteohub,2013-03-02 09:29:00,
2013-03-02 01:34:00,55.4,42.6,30.29,NE,37,0.0,3.0,62,0.00,,,0.00,meteohub,2013-03-02 09:34:00,
2013-03-02 01:40:00,54.9,42.1,30.29,NE,37,0.0,4.0,62,0.00,,,0.00,meteohub,2013-03-02 09:40:00,
2013-03-02 01:45:00,54.5,42.1,30.29,NE,35,2.0,4.0,63,0.00,,,0.00,meteohub,2013-03-02 09:45:00,
2013-03-02 01:50:00,54.1,42.3,30.28,NNE,31,2.0,4.0,64,0.00,,,0.00,meteohub,2013-03-02 09:50:00,
2013-03-02 01:55:00,53.8,41.9,30.28,NNE,28,1.0,6.0,64,0.00,,,0.00,meteohub,2013-03-02 09:55:00,
2013-03-02 02:00:00,53.4,41.2,30.28,NNE,24,2.0,6.0,63,0.00,,,0.00,meteohub,2013-03-02 10:00:00,
2013-03-02 02:05:00,53.4,41.2,30.28,NNE,22,2.0,4.0,63,0.00,,,0.00,meteohub,2013-03-02 10:05:00,
2013-03-02 02:11:00,53.2,41.0,30.28,NNE,28,2.0,6.0,63,0.00,,,0.00,meteohub,2013-03-02 10:11:00,
2013-03-02 02:16:00,53.2,41.0,30.28,NNE,33,0.0,6.0,63,0.00,,,0.00,meteohub,2013-03-02 10:16:00,
2013-03-02 02:21:00,53.1,41.2,30.27,NNE,32,0.0,6.0,64,0.00,,,0.00,meteohub,2013-03-02 10:21:00,
2013-03-02 02:27:00,52.9,41.0,30.27,NNE,25,2.0,6.0,64,0.00,,,0.00,meteohub,2013-03-02 10:27:00,
2013-03-02 02:32:00,52.9,41.0,30.27,NNE,21,1.0,4.0,64,0.00,,,0.00,meteohub,2013-03-02 10:32:00,
2013-03-02 02:37:00,52.5,40.6,30.27,NNE,21,3.0,5.0,64,0.00,,,0.00,meteohub,2013-03-02 10:37:00,
2013-03-02 02:42:00,52.5,41.2,30.27,NNE,22,2.0,5.0,65,0.00,,,0.00,meteohub,2013-03-02 10:42:00,
2013-03-02 02:47:00,52.3,41.0,30.26,NNE,22,4.0,5.0,65,0.00,,,0.00,meteohub,2013-03-02 10:47:00,
2013-03-02 02:52:00,52.2,41.2,30.26,NNE,20,0.0,5.0,66,0.00,,,0.00,meteohub,2013-03-02 10:52:00,
2013-03-02 02:57:00,52.2,40.8,30.26,NNE,24,2.0,4.0,65,0.00,,,0.00,meteohub,2013-03-02 10:57:00,
2013-03-02 03:03:00,52.2,40.8,30.26,NE,36,2.0,5.0,65,0.00,,,0.00,meteohub,2013-03-02 11:03:00,
2013-03-02 03:08:00,52.2,40.8,30.25,NNE,27,1.0,5.0,65,0.00,,,0.00,meteohub,2013-03-02 11:08:00,
2013-03-02 03:13:00,51.8,40.8,30.25,NNE,28,2.0,5.0,66,0.00,,,0.00,meteohub,2013-03-02 11:13:00,
2013-03-02 03:18:00,51.6,40.6,30.25,NNE,28,2.0,5.0,66,0.00,,,0.00,meteohub,2013-03-02 11:18:00,
2013-03-02 03:23:00,51.6,40.6,30.25,NNE,27,1.0,5.0,66,0.00,,,0.00,meteohub,2013-03-02 11:23:00,
2013-03-02 03:28:00,51.4,40.5,30.25,NNE,24,3.0,5.0,66,0.00,,,0.00,meteohub,2013-03-02 11:28:00,
2013-03-02 03:33:00,51.4,40.5,30.25,NNE,25,3.0,7.0,66,0.00,,,0.00,meteohub,2013-03-02 11:33:00,
2013-03-02 03:38:00,51.3,40.3,30.25,NNE,28,1.0,7.0,66,0.00,,,0.00,meteohub,2013-03-02 11:38:00,
2013-03-02 03:43:00,51.3,40.3,30.25,NNE,23,1.0,5.0,66,0.00,,,0.00,meteohub,2013-03-02 11:43:00,
2013-03-02 03:48:00,51.3,39.9,30.25,NNE,17,1.0,5.0,65,0.00,,,0.00,meteohub,2013-03-02 11:48:00,
2013-03-02 03:53:00,51.1,40.1,30.25,NNE,16,4.0,5.0,66,0.00,,,0.00,meteohub,2013-03-02 11:53:00,
2013-03-02 03:59:00,50.7,39.7,30.25,NNE,18,2.0,5.0,66,0.00,,,0.00,meteohub,2013-03-02 11:59:00,
2013-03-02 04:04:00,50.5,39.9,30.25,NNE,19,1.0,5.0,67,0.00,,,0.00,meteohub,2013-03-02 12:04:00,
2013-03-02 04:09:00,50.4,39.7,30.25,NNE,19,2.0,5.0,67,0.00,,,0.00,meteohub,2013-03-02 12:09:00,
2013-03-02 04:14:00,50.4,39.7,30.25,NNE,25,3.0,5.0,67,0.00,,,0.00,meteohub,2013-03-02 12:14:00,
2013-03-02 04:19:00,50.2,39.6,30.25,NNE,27,2.0,5.0,67,0.00,,,0.00,meteohub,2013-03-02 12:19:00,
2013-03-02 04:24:00,50.2,39.6,30.25,NNE,29,2.0,5.0,67,0.00,,,0.00,meteohub,2013-03-02 12:24:00,
2013-03-02 04:29:00,50.0,39.9,30.25,NNE,28,3.0,5.0,68,0.00,,,0.00,meteohub,2013-03-02 12:29:00,
2013-03-02 04:34:00,50.0,39.6,30.25,NNE,29,2.0,6.0,67,0.00,,,0.00,meteohub,2013-03-02 12:34:00,
2013-03-02 04:39:00,50.0,39.6,30.25,NNE,25,2.0,6.0,67,0.00,,,0.00,meteohub,2013-03-02 12:39:00,
2013-03-02 04:44:00,50.0,39.6,30.25,NNE,30,2.0,7.0,67,0.00,,,0.00,meteohub,2013-03-02 12:44:00,
2013-03-02 04:50:00,49.8,39.4,30.25,NE,34,2.0,7.0,67,0.00,,,0.00,meteohub,2013-03-02 12:50:00,
2013-03-02 04:55:00,49.8,39.7,30.25,NE,34,2.0,6.0,68,0.00,,,0.00,meteohub,2013-03-02 12:55:00,
2013-03-02 05:00:00,49.6,39.9,30.25,NNE,30,3.0,5.0,69,0.00,,,0.00,meteohub,2013-03-02 13:00:00,
2013-03-02 05:05:00,49.5,40.1,30.25,NE,48,4.0,7.0,70,0.00,,,0.00,meteohub,2013-03-02 13:05:00,
2013-03-02 05:10:00,49.1,40.1,30.25,ENE,61,2.0,7.0,71,0.00,,,0.00,meteohub,2013-03-02 13:10:00,
2013-03-02 05:15:00,48.9,40.3,30.25,NE,36,0.0,8.0,72,0.00,,,0.00,meteohub,2013-03-02 13:15:00,
2013-03-02 05:20:00,48.7,40.1,30.25,NNE,28,0.0,8.0,72,0.00,,,0.00,meteohub,2013-03-02 13:20:00,
2013-03-02 05:25:00,48.9,40.6,30.25,NNE,30,1.0,7.0,73,0.00,,,0.00,meteohub,2013-03-02 13:25:00,
2013-03-02 05:30:00,48.9,40.6,30.25,North,9,0.0,7.0,73,0.00,,,0.00,meteohub,2013-03-02 13:30:00,
2013-03-02 05:35:00,48.9,40.6,30.25,NNE,33,4.0,8.0,73,0.00,,,0.00,meteohub,2013-03-02 13:35:00,
2013-03-02 05:40:00,48.9,40.6,30.25,NNE,27,6.0,8.0,73,0.00,,,0.00,meteohub,2013-03-02 13:40:00,
2013-03-02 05:45:00,48.9,40.6,30.25,NNE,13,4.0,9.0,73,0.00,,,0.00,meteohub,2013-03-02 13:45:00,
2013-03-02 05:50:00,48.9,40.6,30.25,NNE,32,3.0,9.0,73,0.00,,,0.00,meteohub,2013-03-02 13:50:00,
2013-03-02 05:55:00,48.9,40.6,30.25,NNE,20,4.0,9.0,73,0.00,,,0.00,meteohub,2013-03-02 13:55:00,
2013-03-02 06:00:00,48.9,41.0,30.25,NE,34,4.0,7.0,74,0.00,,,0.00,meteohub,2013-03-02 14:00:00,
2013-03-02 06:05:00,48.9,40.6,30.25,NE,51,3.0,8.0,73,0.00,,,0.00,meteohub,2013-03-02 14:05:00,
2013-03-02 06:11:00,48.9,40.6,30.25,North,11,7.0,8.0,73,0.00,,,0.00,meteohub,2013-03-02 14:11:00,
2013-03-02 06:16:00,49.3,40.3,30.25,NNE,24,2.0,8.0,71,0.00,,,0.00,meteohub,2013-03-02 14:16:00,
2013-03-02 06:21:00,49.3,39.9,30.25,NNW,348,4.0,8.0,70,0.00,,,0.00,meteohub,2013-03-02 14:21:00,
2013-03-02 06:26:00,49.5,39.7,30.25,NE,40,5.0,9.0,69,0.00,,,0.00,meteohub,2013-03-02 14:26:00,
2013-03-02 06:31:00,49.5,39.4,30.25,ENE,63,3.0,10.0,68,0.00,,,0.00,meteohub,2013-03-02 14:31:00,
2013-03-02 06:36:00,49.5,39.4,30.25,NNE,32,1.0,10.0,68,0.00,,,0.00,meteohub,2013-03-02 14:36:00,
2013-03-02 06:41:00,49.3,39.6,30.25,NNE,19,3.0,10.0,69,0.00,,,0.00,meteohub,2013-03-02 14:41:00,
2013-03-02 06:46:00,49.3,39.9,30.25,NNE,18,6.0,7.0,70,0.00,,,0.00,meteohub,2013-03-02 14:46:00,
2013-03-02 06:51:00,49.3,39.9,30.25,North,5,3.0,7.0,70,0.00,,,0.00,meteohub,2013-03-02 14:51:00,
2013-03-02 06:56:00,49.3,39.9,30.26,NE,48,3.0,7.0,70,0.00,,,0.00,meteohub,2013-03-02 14:56:00,
2013-03-02 07:01:00,49.5,40.1,30.25,NE,42,4.0,8.0,70,0.00,,,0.00,meteohub,2013-03-02 15:01:00,
2013-03-02 07:06:00,49.5,40.8,30.25,NNE,18,5.0,8.0,72,0.00,,,0.00,meteohub,2013-03-02 15:06:00,
2013-03-02 07:12:00,49.5,40.8,30.25,NE,43,4.0,8.0,72,0.00,,,0.00,meteohub,2013-03-02 15:12:00,
2013-03-02 07:17:00,49.5,40.8,30.26,NNE,32,3.0,8.0,72,0.00,,,0.00,meteohub,2013-03-02 15:17:00,
2013-03-02 07:22:00,49.5,40.8,30.26,NE,38,3.0,8.0,72,0.00,,,0.00,meteohub,2013-03-02 15:22:00,
2013-03-02 07:27:00,49.6,40.6,30.26,NE,36,5.0,8.0,71,0.00,,,0.00,meteohub,2013-03-02 15:27:00,
2013-03-02 07:32:00,49.8,40.8,30.26,NE,36,4.0,8.0,71,0.00,,,0.00,meteohub,2013-03-02 15:32:00,
2013-03-02 07:37:00,49.8,40.8,30.26,NE,47,5.0,8.0,71,0.00,,,0.00,meteohub,2013-03-02 15:37:00,
2013-03-02 07:42:00,50.0,41.0,30.26,NE,34,3.0,8.0,71,0.00,,,0.00,meteohub,2013-03-02 15:42:00,
2013-03-02 07:47:00,50.2,41.2,30.27,NNE,24,4.0,8.0,71,0.00,,,0.00,meteohub,2013-03-02 15:47:00,
2013-03-02 07:52:00,50.5,41.5,30.26,NNE,15,3.0,7.0,71,0.00,,,0.00,meteohub,2013-03-02 15:52:00,
2013-03-02 07:57:00,50.9,41.9,30.26,NE,40,3.0,9.0,71,0.00,,,0.00,meteohub,2013-03-02 15:57:00,
2013-03-02 08:02:00,51.1,41.7,30.26,NE,44,8.0,9.0,70,0.00,,,0.00,meteohub,2013-03-02 16:02:00,
2013-03-02 08:08:00,51.4,41.9,30.26,NE,51,1.0,9.0,70,0.00,,,0.00,meteohub,2013-03-02 16:08:00,
2013-03-02 08:13:00,51.6,42.1,30.26,NNE,29,4.0,8.0,70,0.00,,,0.00,meteohub,2013-03-02 16:13:00,
2013-03-02 08:18:00,51.8,42.3,30.26,NNE,31,5.0,8.0,70,0.00,,,0.00,meteohub,2013-03-02 16:18:00,
2013-03-02 08:23:00,52.3,43.2,30.26,NNE,24,5.0,7.0,71,0.00,,,0.00,meteohub,2013-03-02 16:23:00,
2013-03-02 08:28:00,53.1,43.2,30.26,NE,42,4.0,7.0,69,0.00,,,0.00,meteohub,2013-03-02 16:28:00,
2013-03-02 08:33:00,54.0,43.7,30.26,NE,44,3.0,7.0,68,0.00,,,0.00,meteohub,2013-03-02 16:33:00,
2013-03-02 08:39:00,54.7,44.8,30.26,NNE,32,3.0,7.0,69,0.00,,,0.00,meteohub,2013-03-02 16:39:00,
2013-03-02 08:44:00,55.0,44.2,30.27,NE,41,1.0,6.0,67,0.00,,,0.00,meteohub,2013-03-02 16:44:00,
2013-03-02 08:49:00,55.8,45.0,30.26,NNE,32,0.0,6.0,67,0.00,,,0.00,meteohub,2013-03-02 16:49:00,
2013-03-02 08:54:00,56.8,45.1,30.26,NNE,23,2.0,5.0,65,0.00,,,0.00,meteohub,2013-03-02 16:54:00,
2013-03-02 08:59:00,57.6,45.1,30.27,NNE,32,2.0,5.0,63,0.00,,,0.00,meteohub,2013-03-02 16:59:00,
2013-03-02 09:04:00,58.3,45.7,30.26,NE,42,3.0,5.0,63,0.00,,,0.00,meteohub,2013-03-02 17:04:00,
2013-03-02 09:09:00,57.9,45.3,30.26,NNE,28,2.0,5.0,63,0.00,,,0.00,meteohub,2013-03-02 17:09:00,
2013-03-02 09:14:00,58.8,46.2,30.26,ENE,60,0.0,5.0,63,0.00,,,0.00,meteohub,2013-03-02 17:14:00,
2013-03-02 09:19:00,58.6,46.0,30.26,NE,47,0.0,5.0,63,0.00,,,0.00,meteohub,2013-03-02 17:19:00,
2013-03-02 09:24:00,59.5,46.9,30.26,NE,44,0.0,4.0,63,0.00,,,0.00,meteohub,2013-03-02 17:24:00,
2013-03-02 09:30:00,60.1,46.9,30.26,NE,45,0.0,3.0,62,0.00,,,0.00,meteohub,2013-03-02 17:30:00,
2013-03-02 09:35:00,60.8,47.3,30.26,NE,40,0.0,3.0,61,0.00,,,0.00,meteohub,2013-03-02 17:35:00,
2013-03-02 09:40:00,61.0,47.5,30.26,NE,40,0.0,3.0,61,0.00,,,0.00,meteohub,2013-03-02 17:40:00,
2013-03-02 09:45:00,63.1,48.2,30.26,NE,45,0.0,3.0,58,0.00,,,0.00,meteohub,2013-03-02 17:45:00,
2013-03-02 09:50:00,64.8,47.3,30.26,NE,45,0.0,1.0,53,0.00,,,0.00,meteohub,2013-03-02 17:50:00,
2013-03-02 09:55:00,65.8,44.4,30.26,ENE,59,0.0,1.0,46,0.00,,,0.00,meteohub,2013-03-02 17:55:00,
2013-03-02 10:00:00,67.3,42.1,30.26,SW,219,5.0,5.0,40,0.00,,,0.00,meteohub,2013-03-02 18:00:00,
2013-03-02 10:05:00,67.8,42.6,30.25,SW,218,3.0,5.0,40,0.00,,,0.00,meteohub,2013-03-02 18:05:00,
2013-03-02 10:10:00,68.5,42.6,30.26,SSW,207,5.0,5.0,39,0.00,,,0.00,meteohub,2013-03-02 18:10:00,
2013-03-02 10:15:00,68.5,41.9,30.25,SSW,202,0.0,7.0,38,0.00,,,0.00,meteohub,2013-03-02 18:15:00,
2013-03-02 10:20:00,68.5,43.3,30.25,SSW,200,0.0,7.0,40,0.00,,,0.00,meteohub,2013-03-02 18:20:00,
2013-03-02 10:26:00,69.3,45.1,30.25,SSW,194,5.0,7.0,42,0.00,,,0.00,meteohub,2013-03-02 18:26:00,
2013-03-02 10:31:00,70.2,38.1,30.25,SSW,192,6.0,7.0,31,0.00,,,0.00,meteohub,2013-03-02 18:31:00,
2013-03-02 10:36:00,70.7,36.0,30.25,SSW,192,7.0,11.0,28,0.00,,,0.00,meteohub,2013-03-02 18:36:00,
2013-03-02 10:41:00,71.2,34.5,30.25,SSE,163,4.0,11.0,26,0.00,,,0.00,meteohub,2013-03-02 18:41:00,
2013-03-02 10:47:00,71.2,36.5,30.25,SSW,211,5.0,10.0,28,0.00,,,0.00,meteohub,2013-03-02 18:47:00,
2013-03-02 10:52:00,71.2,36.5,30.25,SSW,205,6.0,11.0,28,0.00,,,0.00,meteohub,2013-03-02 18:52:00,
2013-03-02 10:57:00,69.8,34.3,30.25,South,190,4.0,12.0,27,0.00,,,0.00,meteohub,2013-03-02 18:57:00,
2013-03-02 11:02:00,70.7,36.0,30.24,South,173,3.0,12.0,28,0.00,,,0.00,meteohub,2013-03-02 19:02:00,
2013-03-02 11:07:00,70.3,33.8,30.24,SSW,208,6.0,12.0,26,0.00,,,0.00,meteohub,2013-03-02 19:07:00,
2013-03-02 11:12:00,70.0,34.5,30.24,SW,219,6.0,11.0,27,0.00,,,0.00,meteohub,2013-03-02 19:12:00,
2013-03-02 11:17:00,69.4,34.0,30.24,SSW,194,7.0,11.0,27,0.00,,,0.00,meteohub,2013-03-02 19:17:00,
2013-03-02 11:23:00,69.4,34.0,30.24,SW,217,10.0,11.0,27,0.00,,,0.00,meteohub,2013-03-02 19:23:00,
2013-03-02 11:28:00,69.4,34.9,30.24,SSE,159,4.0,11.0,28,0.00,,,0.00,meteohub,2013-03-02 19:28:00,
2013-03-02 11:33:00,69.3,36.5,30.24,SSW,210,7.0,11.0,30,0.00,,,0.00,meteohub,2013-03-02 19:33:00,
2013-03-02 11:38:00,68.5,36.7,30.24,South,183,4.0,11.0,31,0.00,,,0.00,meteohub,2013-03-02 19:38:00,
2013-03-02 11:43:00,69.1,37.2,30.24,South,172,5.0,10.0,31,0.00,,,0.00,meteohub,2013-03-02 19:43:00,
2013-03-02 11:49:00,70.2,38.8,30.24,SSE,166,6.0,12.0,32,0.00,,,0.00,meteohub,2013-03-02 19:49:00,
2013-03-02 11:54:00,70.5,38.5,30.23,SSW,211,8.0,14.0,31,0.00,,,0.00,meteohub,2013-03-02 19:54:00,
2013-03-02 11:59:00,70.9,37.9,30.23,SSW,205,5.0,14.0,30,0.00,,,0.00,meteohub,2013-03-02 19:59:00,
2013-03-02 12:04:00,70.2,35.6,30.23,South,175,5.0,14.0,28,0.00,,,0.00,meteohub,2013-03-02 20:04:00,
2013-03-02 12:09:00,70.9,37.0,30.22,SSW,193,3.0,11.0,29,0.00,,,0.00,meteohub,2013-03-02 20:09:00,
2013-03-02 12:14:00,71.4,37.6,30.22,SSW,211,7.0,11.0,29,0.00,,,0.00,meteohub,2013-03-02 20:14:00,
2013-03-02 12:19:00,72.0,37.0,30.22,SSW,208,4.0,11.0,28,0.00,,,0.00,meteohub,2013-03-02 20:19:00,
2013-03-02 12:24:00,72.3,38.3,30.22,South,191,6.0,11.0,29,0.00,,,0.00,meteohub,2013-03-02 20:24:00,
2013-03-02 12:30:00,72.1,35.4,30.21,South,175,5.0,11.0,26,0.00,,,0.00,meteohub,2013-03-02 20:30:00,
2013-03-02 12:35:00,72.3,36.5,30.21,SW,232,4.0,9.0,27,0.00,,,0.00,meteohub,2013-03-02 20:35:00,
2013-03-02 12:40:00,72.1,37.2,30.21,SSW,199,3.0,11.0,28,0.00,,,0.00,meteohub,2013-03-02 20:40:00,
2013-03-02 12:45:00,72.1,36.3,30.20,SW,221,6.0,12.0,27,0.00,,,0.00,meteohub,2013-03-02 20:45:00,
2013-03-02 12:50:00,72.3,37.4,30.20,SSW,202,10.0,13.0,28,0.00,,,0.00,meteohub,2013-03-02 20:50:00,
2013-03-02 12:56:00,72.1,37.2,30.20,SSE,155,6.0,13.0,28,0.00,,,0.00,meteohub,2013-03-02 20:56:00,
2013-03-02 13:38:00,69.4,40.6,30.19,SSW,205,7.0,12.0,35,0.00,,,0.00,meteohub,2013-03-02 21:38:00,
2013-03-02 13:49:00,69.6,42.3,30.19,SSW,203,2.0,14.0,37,0.00,,,0.00,meteohub,2013-03-02 21:49:00,
2013-03-02 13:54:00,68.9,41.5,30.19,SSW,209,4.0,14.0,37,0.00,,,0.00,meteohub,2013-03-02 21:54:00,
2013-03-02 13:59:00,69.1,43.2,30.19,North,0,9.0,13.0,39,0.00,,,0.00,meteohub,2013-03-02 21:59:00,
2013-03-02 14:04:00,68.4,41.7,30.19,South,183,3.0,11.0,38,0.00,,,0.00,meteohub,2013-03-02 22:04:00,
2013-03-02 14:09:00,67.8,39.9,30.19,SW,234,7.0,12.0,36,0.00,,,0.00,meteohub,2013-03-02 22:09:00,
2013-03-02 14:15:00,67.6,39.7,30.19,SSW,200,2.0,11.0,36,0.00,,,0.00,meteohub,2013-03-02 22:15:00,
2013-03-02 14:20:00,67.8,39.2,30.19,SSW,202,7.0,11.0,35,0.00,,,0.00,meteohub,2013-03-02 22:20:00,
2013-03-02 14:25:00,68.2,39.6,30.18,SSW,194,5.0,10.0,35,0.00,,,0.00,meteohub,2013-03-02 22:25:00,
2013-03-02 14:30:00,68.4,36.5,30.18,SW,225,3.0,10.0,31,0.00,,,0.00,meteohub,2013-03-02 22:30:00,
2013-03-02 14:35:00,68.5,36.0,30.18,SSW,199,6.0,10.0,30,0.00,,,0.00,meteohub,2013-03-02 22:35:00,
2013-03-02 14:40:00,68.7,36.9,30.18,SSW,200,7.0,10.0,31,0.00,,,0.00,meteohub,2013-03-02 22:40:00,
2013-03-02 14:45:00,69.1,36.3,30.17,SSW,208,7.0,10.0,30,0.00,,,0.00,meteohub,2013-03-02 22:45:00,
2013-03-02 14:50:00,69.1,34.5,30.17,South,179,5.0,10.0,28,0.00,,,0.00,meteohub,2013-03-02 22:50:00,
2013-03-02 14:55:00,69.4,36.7,30.17,SSW,209,7.0,10.0,30,0.00,,,0.00,meteohub,2013-03-02 22:55:00,
2013-03-02 15:01:00,70.0,37.9,30.17,South,182,4.0,10.0,31,0.00,,,0.00,meteohub,2013-03-02 23:01:00,
2013-03-02 15:06:00,69.8,37.0,30.16,SSW,205,6.0,11.0,30,0.00,,,0.00,meteohub,2013-03-02 23:06:00,
2013-03-02 15:11:00,69.6,37.6,30.16,SW,217,7.0,11.0,31,0.00,,,0.00,meteohub,2013-03-02 23:11:00,
2013-03-02 15:16:00,69.6,37.6,30.17,South,180,4.0,11.0,31,0.00,,,0.00,meteohub,2013-03-02 23:16:00,
2013-03-02 15:21:00,69.8,37.0,30.16,SSW,202,6.0,11.0,30,0.00,,,0.00,meteohub,2013-03-02 23:21:00,
2013-03-02 15:26:00,69.4,35.8,30.16,SW,214,2.0,9.0,29,0.00,,,0.00,meteohub,2013-03-02 23:26:00,
2013-03-02 15:31:00,68.2,35.6,30.16,SW,236,4.0,10.0,30,0.00,,,0.00,meteohub,2013-03-02 23:31:00,
2013-03-02 15:36:00,67.3,32.2,30.16,SSW,197,5.0,10.0,27,0.00,,,0.00,meteohub,2013-03-02 23:36:00,
2013-03-02 15:42:00,66.7,31.6,30.16,SSW,208,6.0,10.0,27,0.00,,,0.00,meteohub,2013-03-02 23:42:00,
2013-03-02 15:47:00,66.6,31.5,30.16,South,185,5.0,9.0,27,0.00,,,0.00,meteohub,2013-03-02 23:47:00,
2013-03-02 15:52:00,66.4,30.4,30.16,SW,225,6.0,9.0,26,0.00,,,0.00,meteohub,2013-03-02 23:52:00,
2013-03-02 15:57:00,66.4,29.5,30.16,SSW,198,5.0,9.0,25,0.00,,,0.00,meteohub,2013-03-02 23:57:00,
2013-03-02 16:02:00,66.2,31.3,30.16,South,169,5.0,9.0,27,0.00,,,0.00,meteohub,2013-03-03 00:02:00,
2013-03-02 16:07:00,66.0,31.1,30.16,South,186,3.0,9.0,27,0.00,,,0.00,meteohub,2013-03-03 00:07:00,
2013-03-02 16:12:00,65.5,34.0,30.15,SW,214,6.0,10.0,31,0.00,,,0.00,meteohub,2013-03-03 00:12:00,
2013-03-02 16:17:00,65.1,36.1,30.15,SW,224,7.0,10.0,34,0.00,,,0.00,meteohub,2013-03-03 00:17:00,
2013-03-02 16:23:00,64.8,36.5,30.15,SSW,210,7.0,10.0,35,0.00,,,0.00,meteohub,2013-03-03 00:23:00,
2013-03-02 16:28:00,64.2,35.2,30.14,SW,219,3.0,9.0,34,0.00,,,0.00,meteohub,2013-03-03 00:28:00,
2013-03-02 16:33:00,64.0,33.6,30.14,SSW,202,2.0,8.0,32,0.00,,,0.00,meteohub,2013-03-03 00:33:00,
2013-03-02 16:38:00,63.9,31.8,30.14,SW,219,7.0,8.0,30,0.00,,,0.00,meteohub,2013-03-03 00:38:00,
2013-03-02 16:43:00,63.9,34.2,30.14,South,188,3.0,9.0,33,0.00,,,0.00,meteohub,2013-03-03 00:43:00,
2013-03-02 16:48:00,63.3,32.9,30.14,SSW,212,2.0,9.0,32,0.00,,,0.00,meteohub,2013-03-03 00:48:00,
2013-03-02 16:53:00,63.1,32.0,30.14,SSW,197,2.0,9.0,31,0.00,,,0.00,meteohub,2013-03-03 00:53:00,
2013-03-02 16:58:00,63.0,32.7,30.14,SSW,213,2.0,9.0,32,0.00,,,0.00,meteohub,2013-03-03 00:58:00,
2013-03-02 17:03:00,62.8,34.0,30.14,SSW,195,2.0,8.0,34,0.00,,,0.00,meteohub,2013-03-03 01:03:00,
2013-03-02 17:08:00,62.4,32.9,30.14,SSW,212,7.0,7.0,33,0.00,,,0.00,meteohub,2013-03-03 01:08:00,
2013-03-02 17:14:00,62.2,33.4,30.14,SSW,213,5.0,8.0,34,0.00,,,0.00,meteohub,2013-03-03 01:14:00,
2013-03-02 17:19:00,62.1,34.2,30.14,SSW,205,4.0,8.0,35,0.00,,,0.00,meteohub,2013-03-03 01:19:00,
2013-03-02 17:24:00,61.7,34.5,30.14,SW,214,4.0,8.0,36,0.00,,,0.00,meteohub,2013-03-03 01:24:00,
2013-03-02 17:29:00,61.5,35.1,30.14,SSW,211,4.0,7.0,37,0.00,,,0.00,meteohub,2013-03-03 01:29:00,
2013-03-02 17:34:00,61.2,34.0,30.14,SSW,211,2.0,7.0,36,0.00,,,0.00,meteohub,2013-03-03 01:34:00,
2013-03-02 17:39:00,61.0,32.4,30.14,SSW,213,5.0,7.0,34,0.00,,,0.00,meteohub,2013-03-03 01:39:00,
2013-03-02 17:44:00,61.0,31.6,30.14,SSW,205,6.0,7.0,33,0.00,,,0.00,meteohub,2013-03-03 01:44:00,
2013-03-02 17:49:00,60.8,32.2,30.14,North,0,2.0,7.0,34,0.00,,,0.00,meteohub,2013-03-03 01:49:00,
2013-03-02 17:55:00,60.6,33.4,30.15,SSW,213,5.0,9.0,36,0.00,,,0.00,meteohub,2013-03-03 01:55:00,
2013-03-02 18:00:00,60.4,34.0,30.15,SSW,211,3.0,9.0,37,0.00,,,0.00,meteohub,2013-03-03 02:00:00,
2013-03-02 18:05:00,60.3,35.2,30.15,SSW,202,4.0,9.0,39,0.00,,,0.00,meteohub,2013-03-03 02:05:00,
2013-03-02 18:10:00,59.7,34.7,30.15,SSW,202,4.0,9.0,39,0.00,,,0.00,meteohub,2013-03-03 02:10:00,
2013-03-02 18:15:00,59.5,34.5,30.15,SSW,206,4.0,7.0,39,0.00,,,0.00,meteohub,2013-03-03 02:15:00,
2013-03-02 18:20:00,59.5,34.0,30.15,SSW,206,4.0,7.0,38,0.00,,,0.00,meteohub,2013-03-03 02:20:00,
2013-03-02 18:25:00,59.5,33.3,30.15,SSW,200,4.0,7.0,37,0.00,,,0.00,meteohub,2013-03-03 02:25:00,
2013-03-02 18:30:00,59.4,33.8,30.15,SSW,206,4.0,7.0,38,0.00,,,0.00,meteohub,2013-03-03 02:30:00,
2013-03-02 18:36:00,59.2,34.2,30.15,SSW,199,4.0,8.0,39,0.00,,,0.00,meteohub,2013-03-03 02:36:00,
2013-03-02 18:41:00,59.0,34.7,30.15,SSW,194,4.0,8.0,40,0.00,,,0.00,meteohub,2013-03-03 02:41:00,
2013-03-02 18:46:00,58.6,35.6,30.16,SSW,210,5.0,9.0,42,0.00,,,0.00,meteohub,2013-03-03 02:46:00,
2013-03-02 18:51:00,58.3,36.5,30.16,SSW,202,4.0,9.0,44,0.00,,,0.00,meteohub,2013-03-03 02:51:00,
2013-03-02 18:56:00,57.7,37.0,30.16,SSW,198,7.0,9.0,46,0.00,,,0.00,meteohub,2013-03-03 02:56:00,
2013-03-02 19:02:00,57.2,38.7,30.16,SSW,209,6.0,9.0,50,0.00,,,0.00,meteohub,2013-03-03 03:02:00,
2013-03-02 19:07:00,56.7,40.3,30.17,SSW,197,6.0,9.0,54,0.00,,,0.00,meteohub,2013-03-03 03:07:00,
2013-03-02 19:12:00,55.9,41.0,30.17,SSW,204,8.0,11.0,57,0.00,,,0.00,meteohub,2013-03-03 03:12:00,
2013-03-02 19:17:00,55.6,41.0,30.17,SW,217,8.0,11.0,58,0.00,,,0.00,meteohub,2013-03-03 03:17:00,
2013-03-02 19:23:00,55.2,40.6,30.17,SSW,211,7.0,12.0,58,0.00,,,0.00,meteohub,2013-03-03 03:23:00,
2013-03-02 19:28:00,54.9,41.2,30.17,SSW,195,5.0,12.0,60,0.00,,,0.00,meteohub,2013-03-03 03:28:00,
2013-03-02 19:33:00,54.3,40.8,30.17,SSW,194,7.0,12.0,60,0.00,,,0.00,meteohub,2013-03-03 03:33:00,
2013-03-02 19:38:00,54.1,42.3,30.17,SW,224,7.0,10.0,64,0.00,,,0.00,meteohub,2013-03-03 03:38:00,
2013-03-02 19:43:00,53.6,43.0,30.17,South,188,3.0,9.0,67,0.00,,,0.00,meteohub,2013-03-03 03:43:00,
2013-03-02 19:48:00,53.1,43.5,30.17,South,185,6.0,9.0,70,0.00,,,0.00,meteohub,2013-03-03 03:48:00,
2013-03-02 19:54:00,52.3,43.9,30.17,SSW,197,6.0,9.0,73,0.00,,,0.00,meteohub,2013-03-03 03:54:00,
2013-03-02 19:59:00,51.4,44.1,30.18,SSW,208,6.0,9.0,76,0.00,,,0.00,meteohub,2013-03-03 03:59:00,
2013-03-02 20:04:00,50.7,44.1,30.18,SSW,204,5.0,10.0,78,0.00,,,0.00,meteohub,2013-03-03 04:04:00,
2013-03-02 20:09:00,50.5,43.9,30.18,SSW,197,4.0,10.0,78,0.00,,,0.00,meteohub,2013-03-03 04:09:00,
2013-03-02 20:14:00,50.4,43.7,30.18,SW,216,5.0,10.0,78,0.00,,,0.00,meteohub,2013-03-03 04:14:00,
2013-03-02 20:20:00,49.8,43.9,30.18,SSW,196,7.0,10.0,80,0.00,,,0.00,meteohub,2013-03-03 04:20:00,
2013-03-02 20:25:00,49.6,44.4,30.18,SSW,207,6.0,10.0,82,0.00,,,0.00,meteohub,2013-03-03 04:25:00,
2013-03-02 20:30:00,49.1,44.4,30.18,SSW,205,3.0,7.0,84,0.00,,,0.00,meteohub,2013-03-03 04:30:00,
2013-03-02 20:35:00,48.7,44.4,30.18,SSW,205,4.0,7.0,85,0.00,,,0.00,meteohub,2013-03-03 04:35:00,
2013-03-02 20:40:00,48.7,44.8,30.19,SSW,204,3.0,7.0,86,0.00,,,0.00,meteohub,2013-03-03 04:40:00,
2013-03-02 20:45:00,48.7,44.8,30.19,SSW,209,3.0,7.0,86,0.00,,,0.00,meteohub,2013-03-03 04:45:00,
2013-03-02 20:50:00,48.7,44.4,30.19,SSW,207,3.0,7.0,85,0.00,,,0.00,meteohub,2013-03-03 04:50:00,
2013-03-02 20:56:00,48.9,44.2,30.19,SSW,208,2.0,5.0,84,0.00,,,0.00,meteohub,2013-03-03 04:56:00,
2013-03-02 21:00:00,49.1,44.2,30.19,SSW,208,0.0,5.0,83,0.00,,,0.00,meteohub,2013-03-03 05:00:00,
2013-03-02 21:01:00,49.1,44.2,30.19,SSW,208,0.0,5.0,83,0.00,,,0.00,meteohub,2013-03-03 05:01:00,
2013-03-02 21:03:00,49.3,43.7,30.19,SSW,208,1.0,5.0,81,0.00,,,0.00,meteohub,2013-03-03 05:03:00,
2013-03-02 21:09:00,49.6,43.3,30.19,SSW,208,0.0,4.0,79,0.00,,,0.00,meteohub,2013-03-03 05:09:00,
2013-03-02 21:14:00,49.8,42.3,30.19,SSW,208,0.0,3.0,75,0.00,,,0.00,meteohub,2013-03-03 05:14:00,
2013-03-02 21:19:00,51.1,40.8,30.20,SSE,167,0.0,2.0,68,0.00,,,0.00,meteohub,2013-03-03 05:19:00,
2013-03-02 21:24:00,51.6,41.4,30.21,SSE,167,0.0,2.0,68,0.00,,,0.00,meteohub,2013-03-03 05:24:00,
2013-03-02 21:29:00,51.6,40.6,30.21,SSE,167,0.0,2.0,66,0.00,,,0.00,meteohub,2013-03-03 05:29:00,
2013-03-02 21:34:00,52.2,40.3,30.21,SSE,167,0.0,2.0,64,0.00,,,0.00,meteohub,2013-03-03 05:34:00,
2013-03-02 21:40:00,52.2,40.3,30.21,SSE,167,0.0,0.0,64,0.00,,,0.00,meteohub,2013-03-03 05:40:00,
2013-03-02 21:45:00,52.2,39.9,30.21,SSE,167,0.0,0.0,63,0.00,,,0.00,meteohub,2013-03-03 05:45:00,
2013-03-02 21:50:00,52.2,39.6,30.21,South,174,0.0,1.0,62,0.00,,,0.00,meteohub,2013-03-03 05:50:00,
2013-03-02 21:55:00,52.9,39.4,30.22,South,174,0.0,1.0,60,0.00,,,0.00,meteohub,2013-03-03 05:55:00,
2013-03-02 22:01:00,53.1,39.6,30.21,South,174,0.0,1.0,60,0.00,,,0.00,meteohub,2013-03-03 06:01:00,
2013-03-02 22:06:00,53.2,39.2,30.20,NNE,32,3.0,3.0,59,0.00,,,0.00,meteohub,2013-03-03 06:06:00,
2013-03-02 22:11:00,53.2,39.2,30.20,North,5,3.0,6.0,59,0.00,,,0.00,meteohub,2013-03-03 06:11:00,
2013-03-02 22:17:00,53.4,37.2,30.19,NNE,12,0.0,6.0,54,0.00,,,0.00,meteohub,2013-03-03 06:17:00,
2013-03-02 22:22:00,55.2,36.9,30.19,NNE,12,0.0,6.0,50,0.00,,,0.00,meteohub,2013-03-03 06:22:00,
2013-03-02 22:27:00,55.9,36.5,30.19,NNE,12,0.0,4.0,48,0.00,,,0.00,meteohub,2013-03-03 06:27:00,
2013-03-02 22:32:00,56.5,36.5,30.19,NNE,12,0.0,0.0,47,0.00,,,0.00,meteohub,2013-03-03 06:32:00,
2013-03-02 22:37:00,57.0,36.5,30.18,NNE,12,0.0,0.0,46,0.00,,,0.00,meteohub,2013-03-03 06:37:00,
2013-03-02 22:42:00,57.0,37.0,30.18,NNE,12,0.0,0.0,47,0.00,,,0.00,meteohub,2013-03-03 06:42:00,
2013-03-02 22:48:00,56.7,37.8,30.18,NNE,14,0.0,0.0,49,0.00,,,0.00,meteohub,2013-03-03 06:48:00,
2013-03-02 22:53:00,55.9,38.1,30.17,North,9,0.0,0.0,51,0.00,,,0.00,meteohub,2013-03-03 06:53:00,
2013-03-02 22:58:00,55.0,37.8,30.16,ENE,67,1.0,3.0,52,0.00,,,0.00,meteohub,2013-03-03 06:58:00,
2013-03-02 23:03:00,54.7,38.3,30.14,NE,54,1.0,3.0,54,0.00,,,0.00,meteohub,2013-03-03 07:03:00,
2013-03-02 23:08:00,54.1,38.3,30.14,ESE,113,0.0,4.0,55,0.00,,,0.00,meteohub,2013-03-03 07:08:00,
2013-03-02 23:13:00,54.0,38.7,30.16,East,87,0.0,5.0,56,0.00,,,0.00,meteohub,2013-03-03 07:13:00,
2013-03-02 23:18:00,53.8,38.8,30.15,East,87,0.0,5.0,57,0.00,,,0.00,meteohub,2013-03-03 07:18:00,
2013-03-02 23:23:00,53.4,38.5,30.15,NNE,33,1.0,3.0,57,0.00,,,0.00,meteohub,2013-03-03 07:23:00,
2013-03-02 23:28:00,53.6,37.8,30.17,NNE,24,0.0,4.0,55,0.00,,,0.00,meteohub,2013-03-03 07:28:00,
2013-03-02 23:34:00,54.1,37.4,30.17,NNE,26,0.0,4.0,53,0.00,,,0.00,meteohub,2013-03-03 07:34:00,
2013-03-02 23:39:00,54.9,36.5,30.17,NNE,24,0.0,4.0,50,0.00,,,0.00,meteohub,2013-03-03 07:39:00,
2013-03-02 23:44:00,55.6,36.7,30.17,NNE,24,0.0,2.0,49,0.00,,,0.00,meteohub,2013-03-03 07:44:00,
2013-03-02 23:49:00,55.9,36.5,30.18,NNE,24,0.0,2.0,48,0.00,,,0.00,meteohub,2013-03-03 07:49:00,
2013-03-02 23:54:00,56.3,35.8,30.17,NNE,24,0.0,1.0,46,0.00,,,0.00,meteohub,2013-03-03 07:54:00,
2013-03-02 23:59:00,56.7,35.6,30.18,NNE,23,0.0,0.0,45,0.00,,,0.00,meteohub,2013-03-03 07:59:00,